createdAt,value
2019-01-29T00:00:34.057Z,84.81
2019-01-29T00:03:03.385Z,84.56
2019-01-29T00:05:32.745Z,84.87
2019-01-29T00:08:01.719Z,84.97
2019-01-29T00:10:30.349Z,85.04
2019-01-29T00:12:59.329Z,85.39
2019-01-29T00:15:28.256Z,85.20
2019-01-29T00:17:57.490Z,85.03
2019-01-29T00:20:26.133Z,85.07
2019-01-29T00:22:55.879Z,85.32
2019-01-29T00:25:25.554Z,85.11
2019-01-29T00:27:54.963Z,85.16
2019-01-29T00:30:24.731Z,85.06
2019-01-29T00:32:54.177Z,85.09
2019-01-29T00:35:23.407Z,85.14
2019-01-29T00:37:52.712Z,85.43
2019-01-29T00:40:22.426Z,85.20
2019-01-29T00:42:51.805Z,85.33
2019-01-29T00:45:21.656Z,85.34
2019-01-29T00:47:50.948Z,85.46
2019-01-29T00:50:20.620Z,85.60
2019-01-29T00:52:50.363Z,85.29
2019-01-29T00:55:19.879Z,85.29
2019-01-29T00:57:49.292Z,85.47
2019-01-29T01:00:19.897Z,85.35
2019-01-29T01:02:48.448Z,85.34
2019-01-29T01:05:18.109Z,85.18
2019-01-29T01:07:47.691Z,85.21
2019-01-29T01:10:18.889Z,85.53
2019-01-29T01:12:48.605Z,85.57
2019-01-29T01:15:18.254Z,85.37
2019-01-29T01:17:48.062Z,85.20
2019-01-29T01:20:18.530Z,85.42
2019-01-29T01:22:51.185Z,85.38
2019-01-29T01:25:19.450Z,85.32
2019-01-29T01:27:48.768Z,85.46
2019-01-29T01:30:19.549Z,85.20
2019-01-29T01:32:48.813Z,85.24
2019-01-29T01:35:17.792Z,85.45
2019-01-29T01:37:46.375Z,85.19
2019-01-29T01:40:24.552Z,85.18
2019-01-29T01:42:53.415Z,85.19
2019-01-29T01:45:22.284Z,85.30
2019-01-29T01:47:51.208Z,85.41
2019-01-29T01:50:20.175Z,85.25
2019-01-29T01:52:49.083Z,85.33
2019-01-29T01:55:19.560Z,85.34
2019-01-29T01:57:48.891Z,85.16
2019-01-29T02:00:22.048Z,85.17
2019-01-29T02:02:49.942Z,85.39
2019-01-29T02:05:18.588Z,85.53
2019-01-29T02:07:47.748Z,85.45
2019-01-29T02:10:22.999Z,85.52
2019-01-29T02:12:52.347Z,85.48
2019-01-29T02:15:21.731Z,85.59
2019-01-29T02:17:50.771Z,85.34
2019-01-29T02:20:20.191Z,84.96
2019-01-29T02:22:50.414Z,85.11
2019-01-29T02:25:20.573Z,85.28
2019-01-29T02:27:49.573Z,85.11
2019-01-29T02:30:20.736Z,85.51
2019-01-29T02:32:50.611Z,84.91
2019-01-29T02:35:19.463Z,84.25
2019-01-29T02:37:48.036Z,84.04
2019-01-29T02:40:21.751Z,84.08
2019-01-29T02:42:53.390Z,84.38
2019-01-29T02:45:23.796Z,83.84
2019-01-29T02:47:54.288Z,83.80
2019-01-29T02:50:24.739Z,83.75
2019-01-29T02:52:57.166Z,83.67
2019-01-29T02:55:29.890Z,83.44
2019-01-29T02:57:58.942Z,83.44
2019-01-29T03:00:28.873Z,83.71
2019-01-29T03:02:59.389Z,83.35
2019-01-29T03:05:29.491Z,83.26
2019-01-29T03:08:15.759Z,83.66
2019-01-29T03:11:07.145Z,83.95
2019-01-29T03:14:20.453Z,84.15
2019-01-29T03:16:54.824Z,84.25
2019-01-29T03:19:42.222Z,84.55
2019-01-29T03:25:44.265Z,84.19
2019-01-29T03:28:15.992Z,84.10
2019-01-29T03:30:54.010Z,84.25
2019-01-29T03:33:26.977Z,83.98
2019-01-29T03:36:19.888Z,83.99
2019-01-29T03:38:59.558Z,84.04
2019-01-29T03:41:37.232Z,84.10
2019-01-29T03:44:28.060Z,84.38
2019-01-29T03:47:20.031Z,84.34
2019-01-29T03:49:49.310Z,84.45
2019-01-29T03:52:30.161Z,84.22
2019-01-29T03:55:00.598Z,83.93
2019-01-29T03:57:29.772Z,83.95
2019-01-29T03:59:58.379Z,83.98
2019-01-29T04:02:28.394Z,83.95
2019-01-29T04:05:10.822Z,84.09
2019-01-29T04:07:41.803Z,83.93
2019-01-29T04:10:15.678Z,83.99
2019-01-29T04:12:45.502Z,84.46
2019-01-29T04:15:15.672Z,84.66
2019-01-29T04:17:44.268Z,84.70
2019-01-29T04:20:18.378Z,84.67
2019-01-29T04:22:49.327Z,84.64
2019-01-29T04:25:20.972Z,84.69
2019-01-29T04:27:52.754Z,84.79
2019-01-29T04:30:24.412Z,84.58
2019-01-29T04:32:53.978Z,84.16
2019-01-29T04:35:27.884Z,84.42
2019-01-29T04:38:00.128Z,84.43
2019-01-29T04:40:43.690Z,84.42
2019-01-29T04:43:38.993Z,84.35
2019-01-29T04:46:10.793Z,84.07
2019-01-29T04:49:06.979Z,83.79
2019-01-29T04:51:35.546Z,83.91
2019-01-29T04:54:06.461Z,84.19
2019-01-29T04:56:40.741Z,84.06
2019-01-29T04:59:10.633Z,83.80
2019-01-29T05:01:47.417Z,83.63
2019-01-29T05:04:32.311Z,83.75
2019-01-29T05:07:28.543Z,84.07
2019-01-29T05:10:22.921Z,84.19
2019-01-29T05:13:10.040Z,84.43
2019-01-29T05:16:14.011Z,84.35
2019-01-29T05:19:03.930Z,84.09
2019-01-29T05:21:53.639Z,84.28
2019-01-29T05:24:30.772Z,84.11
2019-01-29T05:27:11.290Z,84.33
2019-01-29T05:29:51.098Z,84.04
2019-01-29T05:32:23.523Z,83.93
2019-01-29T05:34:57.944Z,83.73
2019-01-29T05:37:35.443Z,84.08
2019-01-29T05:40:14.029Z,84.31
2019-01-29T05:43:02.926Z,84.21
2019-01-29T05:48:28.995Z,84.21
2019-01-29T05:51:03.260Z,84.23
2019-01-29T05:53:33.385Z,83.94
2019-01-29T05:56:01.979Z,83.38
2019-01-29T05:58:35.863Z,83.56
2019-01-29T06:01:07.359Z,83.66
2019-01-29T06:06:49.886Z,83.46
2019-01-29T06:09:24.127Z,83.40
2019-01-29T06:11:56.351Z,83.51
2019-01-29T06:14:28.918Z,83.45
2019-01-29T06:17:00.250Z,83.32
2019-01-29T06:19:29.168Z,83.00
2019-01-29T06:22:00.416Z,83.18
2019-01-29T06:24:30.009Z,82.93
2019-01-29T06:27:14.695Z,82.62
2019-01-29T06:29:50.831Z,83.05
2019-01-29T06:32:24.133Z,83.23
2019-01-29T06:34:56.014Z,82.97
2019-01-29T06:37:29.865Z,82.98
2019-01-29T06:39:59.328Z,83.32
2019-01-29T06:42:28.877Z,83.47
2019-01-29T06:44:57.620Z,83.79
2019-01-29T06:47:36.632Z,83.55
2019-01-29T06:50:08.838Z,83.10
2019-01-29T06:52:39.824Z,83.52
2019-01-29T06:55:18.197Z,83.74
2019-01-29T06:57:56.103Z,83.29
2019-01-29T07:00:40.227Z,83.43
2019-01-29T07:03:37.557Z,82.97
2019-01-29T07:06:29.104Z,82.94
2019-01-29T07:08:58.843Z,82.90
2019-01-29T07:11:37.913Z,83.15
2019-01-29T07:14:18.024Z,83.52
2019-01-29T07:17:18.840Z,83.60
2019-01-29T07:19:55.382Z,83.84
2019-01-29T07:22:26.058Z,84.02
2019-01-29T07:25:04.401Z,84.06
2019-01-29T07:27:44.056Z,84.51
2019-01-29T07:30:20.337Z,84.81
2019-01-29T07:32:55.465Z,84.88
2019-01-29T07:35:24.981Z,84.76
2019-01-29T07:37:55.333Z,84.32
2019-01-29T07:40:24.316Z,83.87
2019-01-29T07:42:53.439Z,84.04
2019-01-29T07:45:23.169Z,84.15
2019-01-29T07:47:52.448Z,84.42
2019-01-29T07:50:21.329Z,84.56
2019-01-29T07:52:49.949Z,84.70
2019-01-29T07:55:20.040Z,84.74
2019-01-29T07:57:48.918Z,84.65
2019-01-29T08:00:17.930Z,84.25
2019-01-29T08:02:49.372Z,84.36
2019-01-29T08:05:18.155Z,84.13
2019-01-29T08:07:50.841Z,83.53
2019-01-29T08:10:19.473Z,83.29
2019-01-29T08:12:48.708Z,83.26
2019-01-29T08:15:17.964Z,82.86
2019-01-29T08:17:46.965Z,82.68
2019-01-29T08:20:16.453Z,82.90
2019-01-29T08:22:45.762Z,82.79
2019-01-29T08:25:15.184Z,82.60
2019-01-29T08:27:44.082Z,82.76
2019-01-29T08:30:12.955Z,82.84
2019-01-29T08:32:49.351Z,82.88
2019-01-29T08:35:32.142Z,82.46
2019-01-29T08:38:01.495Z,82.58
2019-01-29T08:40:30.891Z,82.43
2019-01-29T08:42:59.468Z,81.52
2019-01-29T08:45:29.507Z,81.11
2019-01-29T08:47:58.368Z,80.61
2019-01-29T08:50:27.013Z,81.63
2019-01-29T08:52:55.791Z,83.03
2019-01-29T08:55:24.731Z,83.94
2019-01-29T08:57:53.815Z,83.81
2019-01-29T09:00:23.083Z,83.01
2019-01-29T09:02:52.075Z,83.04
2019-01-29T09:05:21.299Z,82.86
2019-01-29T09:07:50.265Z,82.36
2019-01-29T09:10:19.358Z,82.53
2019-01-29T09:12:48.259Z,81.67
2019-01-29T09:15:17.716Z,82.34
2019-01-29T09:17:46.388Z,82.40
2019-01-29T09:20:16.553Z,83.82
2019-01-29T09:22:46.115Z,84.79
2019-01-29T09:25:20.975Z,85.85
2019-01-29T09:27:47.068Z,85.51
2019-01-29T09:30:18.402Z,85.40
2019-01-29T09:32:47.206Z,84.96
2019-01-29T09:35:16.412Z,84.93
2019-01-29T09:37:45.241Z,85.17
2019-01-29T09:40:16.022Z,85.21
2019-01-29T09:42:44.639Z,83.75
2019-01-29T09:45:15.374Z,83.08
2019-01-29T09:47:44.230Z,83.16
2019-01-29T09:50:15.836Z,83.02
2019-01-29T09:52:44.440Z,83.57
2019-01-29T09:55:14.933Z,82.66
2019-01-29T09:57:44.234Z,82.04
2019-01-29T10:00:19.073Z,82.30
2019-01-29T10:02:47.696Z,82.56
2019-01-29T10:05:16.263Z,81.11
2019-01-29T10:07:45.168Z,81.58
2019-01-29T10:10:14.516Z,81.17
2019-01-29T10:12:43.295Z,80.73
2019-01-29T10:15:15.079Z,80.83
2019-01-29T10:17:44.030Z,80.69
2019-01-29T10:20:12.604Z,80.67
2019-01-29T10:22:41.506Z,80.41
2019-01-29T10:25:14.750Z,79.73
2019-01-29T10:27:43.422Z,78.83
2019-01-29T10:30:13.523Z,78.86
2019-01-29T10:32:42.270Z,79.66
2019-01-29T10:35:14.607Z,79.32
2019-01-29T10:37:43.741Z,77.85
2019-01-29T10:40:17.388Z,77.37
2019-01-29T10:42:46.365Z,76.74
2019-01-29T10:45:17.564Z,74.02
2019-01-29T10:47:48.156Z,74.46
2019-01-29T10:50:23.613Z,75.06
2019-01-29T10:52:53.875Z,76.63
2019-01-29T10:55:23.188Z,77.53
2019-01-29T10:57:52.346Z,77.89
2019-01-29T11:00:34.923Z,75.59
2019-01-29T11:03:04.065Z,76.15
2019-01-29T11:05:34.607Z,76.06
2019-01-29T11:08:03.455Z,77.05
2019-01-29T11:10:32.457Z,76.27
2019-01-29T11:13:02.269Z,76.98
2019-01-29T11:15:35.731Z,76.49
2019-01-29T11:18:08.757Z,76.44
2019-01-29T11:20:39.110Z,76.73
2019-01-29T11:23:09.541Z,76.29
2019-01-29T11:25:39.191Z,75.75
2019-01-29T11:28:09.480Z,75.08
2019-01-29T11:30:40.587Z,74.83
2019-01-29T11:33:12.611Z,71.63
2019-01-29T11:35:44.134Z,69.15
2019-01-29T11:38:16.661Z,65.55
2019-01-29T11:40:46.027Z,63.79
2019-01-29T11:43:15.744Z,60.74
2019-01-29T11:45:52.465Z,59.64
2019-01-29T11:48:22.053Z,56.97
2019-01-29T11:50:51.639Z,56.72
2019-01-29T11:53:21.329Z,63.48
2019-01-29T11:55:53.616Z,66.01
2019-01-29T11:58:23.361Z,66.25
2019-01-29T12:00:56.828Z,66.52
2019-01-29T12:03:26.774Z,68.77
2019-01-29T12:05:56.453Z,69.34
2019-01-29T12:08:25.779Z,71.88
2019-01-29T12:10:55.481Z,71.38
2019-01-29T12:13:25.085Z,72.58
2019-01-29T12:15:54.899Z,72.29
2019-01-29T12:18:24.621Z,73.18
2019-01-29T12:20:54.015Z,71.63
2019-01-29T12:23:23.224Z,72.20
2019-01-29T12:25:52.174Z,71.29
2019-01-29T12:28:21.065Z,70.87
2019-01-29T12:30:50.610Z,71.10
2019-01-29T12:33:19.167Z,70.56
2019-01-29T12:35:48.716Z,70.04
2019-01-29T12:38:17.626Z,69.95
2019-01-29T12:40:46.486Z,70.39
2019-01-29T12:43:15.760Z,71.31
2019-01-29T12:45:45.088Z,71.81
2019-01-29T12:48:14.011Z,70.88
2019-01-29T12:50:48.237Z,71.45
2019-01-29T12:53:19.893Z,71.11
2019-01-29T12:55:49.223Z,72.61
2019-01-29T12:58:18.956Z,72.62
2019-01-29T13:00:53.864Z,73.35
2019-01-29T13:03:22.793Z,71.94
2019-01-29T13:05:51.722Z,69.77
2019-01-29T13:08:21.017Z,70.49
2019-01-29T13:10:49.613Z,70.13
2019-01-29T13:13:18.458Z,68.71
2019-01-29T13:15:47.035Z,69.63
2019-01-29T13:18:15.615Z,69.72
2019-01-29T13:20:44.158Z,68.57
2019-01-29T13:23:12.734Z,68.25
2019-01-29T13:25:41.277Z,68.30
2019-01-29T13:28:09.851Z,68.90
2019-01-29T13:30:38.783Z,68.81
2019-01-29T13:33:09.813Z,70.48
2019-01-29T13:35:38.746Z,71.52
2019-01-29T13:38:08.802Z,73.20
2019-01-29T13:40:37.389Z,75.49
2019-01-29T13:43:06.317Z,77.59
2019-01-29T13:45:34.879Z,77.75
2019-01-29T13:48:03.444Z,76.38
2019-01-29T13:50:35.283Z,72.68
2019-01-29T13:53:03.871Z,72.87
2019-01-29T13:55:32.432Z,72.51
2019-01-29T13:58:01.287Z,73.09
2019-01-29T14:00:31.533Z,71.30
2019-01-29T14:03:00.621Z,66.38
2019-01-29T14:05:29.227Z,60.36
2019-01-29T14:07:57.765Z,56.22
2019-01-29T14:10:26.386Z,58.42
2019-01-29T14:12:54.970Z,54.45
2019-01-29T14:15:31.019Z,51.08
2019-01-29T14:17:59.577Z,49.97
2019-01-29T14:20:28.135Z,50.65
2019-01-29T14:22:56.705Z,52.79
2019-01-29T14:25:25.245Z,56.26
2019-01-29T14:27:54.159Z,58.73
2019-01-29T14:30:22.755Z,60.19
2019-01-29T14:32:51.279Z,61.60
2019-01-29T14:35:22.094Z,61.97
2019-01-29T14:38:44.359Z,64.47
2019-01-29T14:41:13.114Z,65.51
2019-01-29T14:43:45.115Z,67.37
2019-01-29T14:46:14.074Z,69.56
2019-01-29T14:48:42.621Z,72.04
2019-01-29T14:51:11.188Z,72.04
2019-01-29T14:53:40.136Z,72.16
2019-01-29T14:56:09.380Z,72.61
2019-01-29T14:58:37.990Z,72.03
2019-01-29T15:01:06.872Z,72.50
2019-01-29T15:03:35.417Z,73.12
2019-01-29T15:06:03.992Z,74.53
2019-01-29T15:08:32.541Z,73.44
2019-01-29T15:11:01.127Z,74.17
2019-01-29T15:13:29.712Z,74.05
2019-01-29T15:16:05.694Z,74.44
2019-01-29T15:18:38.067Z,75.91
2019-01-29T15:21:06.616Z,75.89
2019-01-29T15:23:35.181Z,76.01
2019-01-29T15:26:03.749Z,76.80
2019-01-29T15:28:32.287Z,77.21
2019-01-29T15:31:00.868Z,77.36
2019-01-29T15:33:29.734Z,76.98
2019-01-29T15:35:58.301Z,77.12
2019-01-29T15:38:26.849Z,77.06
2019-01-29T15:40:55.433Z,77.66
2019-01-29T15:43:23.978Z,78.45
2019-01-29T15:45:52.590Z,78.95
2019-01-29T15:48:21.143Z,79.71
2019-01-29T15:50:49.694Z,79.60
2019-01-29T15:53:18.283Z,80.81
2019-01-29T15:55:46.826Z,82.00
2019-01-29T15:58:15.684Z,82.57
2019-01-29T16:00:44.260Z,84.07
2019-01-29T16:03:13.190Z,85.44
2019-01-29T16:05:42.076Z,86.26
2019-01-29T16:08:10.973Z,86.42
2019-01-29T16:10:40.050Z,86.74
2019-01-29T16:13:08.768Z,87.38
2019-01-29T16:15:37.368Z,87.20
2019-01-29T16:18:05.937Z,87.47
2019-01-29T16:20:34.521Z,87.86
2019-01-29T16:23:03.072Z,86.32
2019-01-29T16:25:31.652Z,84.07
2019-01-29T16:28:00.229Z,83.05
2019-01-29T16:30:28.866Z,82.88
2019-01-29T16:32:57.412Z,81.79
2019-01-29T16:35:28.802Z,81.10
2019-01-29T16:37:57.775Z,80.78
2019-01-29T16:40:26.725Z,80.74
2019-01-29T16:42:56.629Z,80.97
2019-01-29T16:45:30.740Z,81.07
2019-01-29T16:48:00.570Z,81.55
2019-01-29T16:50:29.201Z,82.11
2019-01-29T16:52:57.860Z,83.04
2019-01-29T16:55:26.734Z,83.57
2019-01-29T16:57:55.290Z,84.07
2019-01-29T17:00:28.443Z,84.58
2019-01-29T17:02:56.790Z,84.75
2019-01-29T17:05:25.343Z,84.82
2019-01-29T17:07:54.601Z,84.96
2019-01-29T17:10:24.078Z,84.81
2019-01-29T17:12:53.001Z,84.56
2019-01-29T17:15:25.280Z,85.00
2019-01-29T17:17:54.454Z,85.11
2019-01-29T17:20:25.936Z,85.63
2019-01-29T17:22:55.322Z,85.46
2019-01-29T17:25:24.196Z,85.47
2019-01-29T17:27:52.780Z,85.93
2019-01-29T17:30:30.792Z,86.18
2019-01-29T17:32:59.376Z,86.47
2019-01-29T17:35:28.462Z,86.85
2019-01-29T17:37:57.062Z,87.15
2019-01-29T17:40:25.657Z,87.50
2019-01-29T17:42:57.150Z,87.54
2019-01-29T17:45:28.269Z,87.61
2019-01-29T17:47:56.929Z,87.70
2019-01-29T17:50:28.166Z,87.39
2019-01-29T17:52:56.743Z,87.18
2019-01-29T17:55:25.964Z,87.54
2019-01-29T17:57:54.544Z,87.77
2019-01-29T18:00:27.891Z,88.14
2019-01-29T18:02:56.445Z,88.39
2019-01-29T18:05:25.028Z,88.68
2019-01-29T18:07:53.626Z,88.92
2019-01-29T18:10:22.177Z,89.08
2019-01-29T18:12:51.071Z,89.33
2019-01-29T18:15:21.529Z,89.12
2019-01-29T18:17:50.482Z,89.04
2019-01-29T18:20:19.407Z,89.38
2019-01-29T18:22:48.337Z,89.66
2019-01-29T18:25:16.894Z,89.43
2019-01-29T18:27:45.774Z,89.41
2019-01-29T18:30:19.885Z,89.52
2019-01-29T18:32:48.437Z,89.80
2019-01-29T18:35:16.997Z,90.07
2019-01-29T18:37:45.771Z,90.13
2019-01-29T18:40:16.955Z,90.33
2019-01-29T18:42:45.534Z,90.33
2019-01-29T18:45:14.624Z,90.20
2019-01-29T18:47:43.183Z,90.29
2019-01-29T18:50:13.460Z,90.19
2019-01-29T18:52:43.304Z,90.22
2019-01-29T18:55:12.163Z,90.60
2019-01-29T18:57:40.724Z,90.46
2019-01-29T19:00:17.854Z,90.69
2019-01-29T19:02:46.413Z,90.26
2019-01-29T19:05:15.419Z,89.98
2019-01-29T19:07:44.933Z,89.91
2019-01-29T19:10:15.638Z,90.47
2019-01-29T19:12:44.250Z,90.41
2019-01-29T19:15:18.126Z,90.72
2019-01-29T19:17:46.720Z,90.53
2019-01-29T19:20:16.471Z,90.56
2019-01-29T19:22:45.044Z,91.29
2019-01-29T19:25:14.628Z,91.29
2019-01-29T19:27:43.528Z,91.49
2019-01-29T19:30:15.780Z,91.25
2019-01-29T19:32:44.354Z,91.60
2019-01-29T19:35:12.970Z,91.68
2019-01-29T19:37:41.537Z,91.85
2019-01-29T19:40:10.737Z,91.72
2019-01-29T19:42:39.361Z,91.69
2019-01-29T19:45:11.474Z,91.74
2019-01-29T19:47:40.052Z,92.08
2019-01-29T19:50:12.783Z,92.00
2019-01-29T19:52:41.374Z,91.89
2019-01-29T19:55:09.941Z,91.48
2019-01-29T19:57:38.525Z,91.06
2019-01-29T20:00:12.063Z,90.92
2019-01-29T20:02:40.627Z,90.85
2019-01-29T20:05:09.471Z,90.79
2019-01-29T20:07:38.065Z,90.66
2019-01-29T20:10:07.885Z,90.50
2019-01-29T20:12:36.454Z,90.30
2019-01-29T20:15:06.423Z,89.86
2019-01-29T20:17:35.018Z,90.15
2019-01-29T20:20:03.586Z,90.21
2019-01-29T20:22:32.172Z,90.07
2019-01-29T20:25:00.729Z,90.09
2019-01-29T20:27:29.344Z,90.04
2019-01-29T20:29:57.893Z,90.05
2019-01-29T20:32:26.791Z,89.98
2019-01-29T20:34:55.381Z,90.29
2019-01-29T20:37:23.928Z,90.37
2019-01-29T20:39:52.525Z,90.12
2019-01-29T20:42:21.080Z,90.24
2019-01-29T20:44:49.646Z,90.53
2019-01-29T20:47:18.303Z,90.49
2019-01-29T20:49:46.861Z,90.89
2019-01-29T20:52:15.428Z,90.97
2019-01-29T20:54:44.006Z,90.76
2019-01-29T20:57:12.562Z,90.63
2019-01-29T20:59:41.164Z,90.62
2019-01-29T21:02:09.728Z,90.47
2019-01-29T21:04:38.291Z,90.41
2019-01-29T21:07:06.893Z,90.41
2019-01-29T21:09:35.444Z,90.39
2019-01-29T21:12:04.084Z,90.49
2019-01-29T21:14:32.644Z,90.54
2019-01-29T21:17:01.226Z,90.77
2019-01-29T21:19:29.809Z,90.86
2019-01-29T21:21:58.409Z,90.89
2019-01-29T21:24:26.987Z,90.99
2019-01-29T21:26:55.555Z,90.95
2019-01-29T21:29:24.164Z,91.20
2019-01-29T21:31:52.724Z,91.06
2019-01-29T21:34:21.270Z,91.07
2019-01-29T21:36:49.874Z,90.94
2019-01-29T21:39:18.418Z,90.56
2019-01-29T21:41:46.972Z,90.35
2019-01-29T21:44:15.898Z,90.16
2019-01-29T21:46:44.456Z,90.34
2019-01-29T21:49:13.986Z,90.40
2019-01-29T21:51:42.643Z,90.27
2019-01-29T21:54:11.248Z,90.40
2019-01-29T21:56:39.799Z,90.40
2019-01-29T21:59:13.401Z,90.40
2019-01-29T22:01:38.680Z,90.67
2019-01-29T22:04:07.229Z,90.69
2019-01-29T22:06:35.782Z,90.38
2019-01-29T22:09:07.767Z,90.28
2019-01-29T22:11:36.327Z,90.09
2019-01-29T22:14:04.890Z,89.88
2019-01-29T22:16:33.483Z,89.71
2019-01-29T22:19:02.052Z,89.56
2019-01-29T22:21:30.599Z,89.77
2019-01-29T22:23:59.195Z,89.93
2019-01-29T22:26:27.743Z,89.82
2019-01-29T22:28:56.294Z,89.69
2019-01-29T22:31:24.868Z,89.35
2019-01-29T22:33:53.817Z,89.67
2019-01-29T22:36:22.371Z,89.48
2019-01-29T22:38:50.936Z,89.41
2019-01-29T22:41:19.600Z,89.62
2019-01-29T22:43:48.154Z,89.87
2019-01-29T22:46:16.712Z,89.78
2019-01-29T22:48:45.326Z,89.70
2019-01-29T22:51:14.198Z,89.54
2019-01-29T22:53:42.756Z,89.48
2019-01-29T22:56:11.343Z,90.14
2019-01-29T22:58:39.923Z,90.23
2019-01-29T23:01:20.321Z,89.75
2019-01-29T23:04:02.971Z,89.45
2019-01-29T23:06:52.085Z,88.46
2019-01-29T23:09:20.676Z,88.37
2019-01-29T23:11:49.232Z,88.73
2019-01-29T23:14:17.785Z,88.39
2019-01-29T23:16:46.412Z,88.84
2019-01-29T23:19:15.003Z,89.04
2019-01-29T23:21:43.552Z,89.28
2019-01-29T23:24:12.158Z,89.10
2019-01-29T23:26:40.713Z,89.79
2019-01-29T23:29:09.278Z,90.15
2019-01-29T23:31:37.855Z,90.14
2019-01-29T23:34:06.437Z,89.75
2019-01-29T23:36:35.000Z,89.51
2019-01-29T23:39:04.613Z,89.27
2019-01-29T23:41:33.166Z,89.24
2019-01-29T23:44:01.837Z,88.96
2019-01-29T23:46:30.389Z,88.44
2019-01-29T23:48:59.248Z,88.51
2019-01-29T23:51:27.826Z,88.43
2019-01-29T23:53:56.416Z,88.84
2019-01-29T23:56:24.997Z,89.45
2019-01-29T23:58:53.543Z,89.52
